Nearby METAR Reports

 

KJNX - Smithfield, North Carolina, USA
Distance from station: SW 5mi, 7km
Updated: Fri, 24-Nov-2017 4:55pm EST
Clear
Clear
 Wind from calm
Wind: Calm
Temperature: 54°F , 12°C
Dew Point: 30°F , -1°C
Humidity: 41%
Barometer: 29.97 inHg , 1014.9 hPa
Clouds: Clear
Visibility: 10 miles , 16 km
2017/11/24 21:55 KJNX 242155Z AUTO 00000KT 10SM CLR 12/M01 A2997 RMK AO2
KRDU - Raleigh-Durham airport, North Carolina, USA
Distance from station: N 9mi, 14km
Updated: Fri, 24-Nov-2017 4:51pm EST
Few Clouds
Few Clouds
 Wind from E
Wind: E 3 mph , 6 km/h
Temperature: 52°F , 11°C
Dew Point: 21°F , -6°C
Humidity: 30%
Barometer: 29.96 inHg , 1014.6 hPa
Clouds: Few Clouds
Visibility: 10 miles , 16 km
Cloud details: Few Clouds 25000 ft
2017/11/24 21:51 KRDU 242151Z 09003KT 10SM FEW250 11/M06 A2996 RMK AO2 SLP149 T01061056
 
KGWW - Goldsboro, North Carolina, USA
Distance from station: S 14mi, 23km
Updated: Fri, 24-Nov-2017 4:50pm EST
Clear
Clear
 Wind from calm
Wind: Calm
Temperature: 50°F , 10°C
Dew Point: 32°F , 0°C
Humidity: 50%
Barometer: 29.98 inHg , 1015.2 hPa
Clouds: Clear
Visibility: 10 miles , 16 km
2017/11/24 21:50 KGWW 242150Z AUTO 00000KT 10SM CLR 10/00 A2998 RMK AO2 T01000003
KRWI - Rocky Mount, North Carolina, USA
Distance from station: NE 12mi, 19km
Updated: Fri, 24-Nov-2017 4:53pm EST
Clear
Clear
 Wind from calm
Wind: Calm
Temperature: 48°F , 9°C
Dew Point: 32°F , 0°C
Humidity: 54%
Barometer: 29.98 inHg , 1015.2 hPa
Clouds: Clear
Visibility: 10 miles , 16 km
2017/11/24 21:53 KRWI 242153Z AUTO 00000KT 10SM CLR 09/00 A2998 RMK AO2 SLP152 T00940000
 
KTTA - Sanford, North Carolina, USA
Distance from station: W 31mi, 50km
Updated: Fri, 24-Nov-2017 4:45pm EST
Clear
Clear
 Wind from calm
Wind: Calm
Temperature: 54°F , 12°C
Dew Point: 28°F , -2°C
Humidity: 38%
Barometer: 29.95 inHg , 1014.2 hPa
Clouds: Clear
Visibility: 10 miles , 16 km
2017/11/24 21:45 KTTA 242145Z AUTO 00000KT 10SM CLR 12/M02 A2995 RMK AO2 T01171018
KILM - Wilmington, North Carolina, USA
Distance from station: SE 21mi, 34km
Updated: Fri, 24-Nov-2017 4:53pm EST
Mostly cloudy
Mostly cloudy
 Wind from N
Wind: N 7 mph , 11 km/h
Temperature: 55°F , 13°C
Dew Point: 39°F , 4°C
Humidity: 55%
Barometer: 29.94 inHg , 1013.9 hPa
Clouds: Mostly cloudy
Visibility: 10 miles , 16 km
Cloud details: Mostly cloudy 2800 ft
2017/11/24 21:53 KILM 242153Z AUTO 35006KT 10SM BKN028 13/04 A2994 RMK AO2 SLP137 T01330039
 
KISO - Kinston, North Carolina, USA
Distance from station: SE 30mi, 49km
Updated: Fri, 24-Nov-2017 3:56pm EST
Clear
Clear
 Wind from N
Wind: N 7 mph , 11 km/h
Temperature: 57°F , 14°C
Dew Point: 32°F , 0°C
Humidity: 39%
Barometer: 29.97 inHg , 1014.9 hPa
Clouds: Clear
Visibility: 10 miles , 16 km
2017/11/24 20:56 KISO 242056Z 36006KT 10SM CLR 14/00 A2997 RMK AO2
KFFA - Kill Devil Hills, North Carolina, USA
Distance from station: ENE 27mi, 43km
Updated: Fri, 24-Nov-2017 4:40pm EST
Clear
Clear
 Wind from calm
Wind: Calm
Temperature: 52°F , 11°C
Dew Point: 45°F , 7°C
Humidity: 77%
Barometer: 29.96 inHg , 1014.6 hPa
Clouds: Clear
Visibility: 10 miles , 16 km
2017/11/24 21:40 KFFA 242140Z AUTO 00000KT 10SM CLR 11/07 A2996 RMK AO2 T01140070
 
KFAY - Fayetteville, North Carolina, USA
Distance from station: S 27mi, 44km
Updated: Fri, 24-Nov-2017 4:53pm EST
Clear
Clear
 Wind from NNE
Wind: NNE 3 mph , 6 km/h
Temperature: 54°F , 12°C
Dew Point: 30°F , -1°C
Humidity: 41%
Barometer: 29.95 inHg , 1014.2 hPa
Clouds: Clear
Visibility: 10 miles , 16 km
2017/11/24 21:53 KFAY 242153Z 02003KT 10SM CLR 12/M01 A2995 RMK AO2 SLP139 T01171011
KHRJ - Erwin, North Carolina, USA
Distance from station: SW 31mi, 50km
Updated: Fri, 24-Nov-2017 4:45pm EST
Clear
Clear
 Wind from calm
Wind: Calm
Temperature: 55°F , 13°C
Dew Point: 21°F , -6°C
Humidity: 26%
Barometer: 29.97 inHg , 1014.9 hPa
Clouds: Clear
Visibility: 10 miles , 16 km
2017/11/24 21:45 KHRJ 242145Z AUTO 00000KT 10SM CLR 13/M06 A2997 RMK AO2 T01291063
 
KTNB - Boone, North Carolina, USA
Distance from station: WNW 28mi, 44km
Updated: Fri, 24-Nov-2017 4:35pm EST
Clear
Clear
 Wind from SW
Wind: SW 10 mph , 17 km/h
Temperature: 52°F , 11°C
Dew Point: 32°F , 0°C
Humidity: 47%
Barometer: 29.94 inHg , 1013.9 hPa
Clouds: Clear
Visibility: 10 miles , 16 km
2017/11/24 21:35 KTNB 242135Z AUTO 22009KT 10SM CLR 11/00 A2994 RMK AO2 T01050001
KTDF - Roxboro, North Carolina, USA
Distance from station: N 31mi, 51km
Updated: Fri, 24-Nov-2017 4:40pm EST
Clear
Clear
 Wind from calm
Wind: Calm
Temperature: 54°F , 12°C
Dew Point: 25°F , -4°C
Humidity: 33%
Barometer: 29.97 inHg , 1014.9 hPa
Clouds: Clear
Visibility: 10 miles , 16 km
2017/11/24 21:40 KTDF 242140Z AUTO 00000KT 10SM CLR 12/M04 A2997 RMK AO2